createdAt,value
2018-10-02T00:00:23.171Z,5.81
2018-10-02T00:01:23.090Z,5.78
2018-10-02T00:02:23.011Z,5.71
2018-10-02T00:03:22.932Z,5.77
2018-10-02T00:04:22.852Z,5.72
2018-10-02T00:05:22.773Z,5.77
2018-10-02T00:06:22.691Z,5.63
2018-10-02T00:07:22.612Z,5.56
2018-10-02T00:08:22.531Z,5.63
2018-10-02T00:09:22.451Z,5.70
2018-10-02T00:10:22.371Z,5.56
2018-10-02T00:11:22.292Z,5.85
2018-10-02T00:12:22.212Z,5.90
2018-10-02T00:13:22.131Z,5.88
2018-10-02T00:14:22.100Z,5.88
2018-10-02T00:15:21.972Z,5.83
2018-10-02T00:16:21.892Z,5.72
2018-10-02T00:17:21.811Z,5.52
2018-10-02T00:18:21.731Z,5.56
2018-10-02T00:19:21.650Z,5.41
2018-10-02T00:20:21.569Z,5.44
2018-10-02T00:21:21.489Z,5.35
2018-10-02T00:22:21.408Z,5.24
2018-10-02T00:23:21.328Z,5.34
2018-10-02T00:24:21.248Z,5.35
2018-10-02T00:25:21.167Z,5.32
2018-10-02T00:26:21.087Z,5.35
2018-10-02T00:27:21.007Z,5.26
2018-10-02T00:28:20.926Z,5.20
2018-10-02T00:29:20.944Z,5.29
2018-10-02T00:30:20.764Z,5.28
2018-10-02T00:31:20.723Z,5.24
2018-10-02T00:32:20.705Z,5.28
2018-10-02T00:33:20.525Z,5.24
2018-10-02T00:34:20.440Z,5.31
2018-10-02T00:35:20.360Z,5.29
2018-10-02T00:36:20.280Z,5.26
2018-10-02T00:37:20.199Z,5.31
2018-10-02T00:38:20.119Z,5.31
2018-10-02T00:39:20.038Z,5.29
2018-10-02T00:40:19.958Z,5.26
2018-10-02T00:41:19.877Z,5.08
2018-10-02T00:42:19.796Z,5.16
2018-10-02T00:43:19.715Z,5.11
2018-10-02T00:44:19.635Z,5.10
2018-10-02T00:45:19.803Z,5.05
2018-10-02T00:46:19.473Z,5.00
2018-10-02T00:47:19.392Z,4.99
2018-10-02T00:48:19.312Z,4.98
2018-10-02T00:49:19.229Z,5.05
2018-10-02T00:50:19.149Z,4.88
2018-10-02T00:51:19.068Z,4.84
2018-10-02T00:52:18.987Z,4.83
2018-10-02T00:53:18.906Z,4.91
2018-10-02T00:54:18.826Z,4.98
2018-10-02T00:55:18.745Z,5.05
2018-10-02T00:56:18.664Z,5.02
2018-10-02T00:57:18.582Z,4.95
2018-10-02T00:58:18.502Z,4.85
2018-10-02T00:59:18.419Z,4.79
2018-10-02T01:00:18.340Z,4.80
2018-10-02T01:01:18.259Z,4.83
2018-10-02T01:02:18.178Z,4.76
2018-10-02T01:03:18.097Z,4.79
2018-10-02T01:04:18.017Z,4.74
2018-10-02T01:05:17.935Z,4.88
2018-10-02T01:06:17.853Z,4.79
2018-10-02T01:07:17.774Z,4.84
2018-10-02T01:08:17.694Z,4.88
2018-10-02T01:09:17.612Z,4.99
2018-10-02T01:10:17.535Z,4.92
2018-10-02T01:11:17.450Z,4.88
2018-10-02T01:12:17.370Z,4.85
2018-10-02T01:13:17.390Z,4.87
2018-10-02T01:14:17.208Z,4.87
2018-10-02T01:15:17.127Z,4.98
2018-10-02T01:16:17.046Z,4.85
2018-10-02T01:17:16.964Z,4.92
2018-10-02T01:18:16.887Z,4.87
2018-10-02T01:19:16.805Z,4.92
2018-10-02T01:20:16.724Z,4.77
2018-10-02T01:21:16.642Z,4.98
2018-10-02T01:22:16.562Z,4.96
2018-10-02T01:23:16.481Z,5.05
2018-10-02T01:24:16.403Z,5.03
2018-10-02T01:25:16.320Z,5.10
2018-10-02T01:26:16.239Z,5.21
2018-10-02T01:27:16.159Z,5.23
2018-10-02T01:28:16.138Z,5.26
2018-10-02T01:29:16.002Z,5.26
2018-10-02T01:30:15.917Z,5.24
2018-10-02T01:31:15.838Z,5.38
2018-10-02T01:32:15.756Z,5.36
2018-10-02T01:33:15.777Z,5.47
2018-10-02T01:34:15.595Z,5.53
2018-10-02T01:35:15.515Z,5.63
2018-10-02T01:36:15.435Z,5.63
2018-10-02T01:37:15.353Z,5.67
2018-10-02T01:38:15.276Z,5.74
2018-10-02T01:39:15.193Z,5.88
2018-10-02T01:40:15.114Z,5.88
2018-10-02T01:41:15.034Z,5.95
2018-10-02T01:42:14.952Z,5.97
2018-10-02T01:43:14.873Z,5.95
2018-10-02T01:44:14.793Z,6.07
2018-10-02T01:45:14.714Z,6.07
2018-10-02T01:46:14.637Z,6.10
2018-10-02T01:47:14.554Z,6.18
2018-10-02T01:48:14.473Z,6.30
2018-10-02T01:49:14.442Z,6.32
2018-10-02T01:50:14.314Z,6.21
2018-10-02T01:51:14.233Z,6.30
2018-10-02T01:52:14.155Z,6.29
2018-10-02T01:53:14.076Z,6.30
2018-10-02T01:54:13.994Z,6.37
2018-10-02T01:55:13.916Z,6.39
2018-10-02T01:56:13.838Z,6.37
2018-10-02T01:57:13.755Z,6.48
2018-10-02T01:58:13.676Z,6.57
2018-10-02T01:59:13.596Z,6.52
2018-10-02T02:00:13.518Z,6.55
2018-10-02T02:01:13.437Z,6.60
2018-10-02T02:02:13.357Z,6.60
2018-10-02T02:03:13.278Z,6.70
2018-10-02T02:04:13.249Z,6.72
2018-10-02T02:05:13.119Z,6.70
2018-10-02T02:06:13.040Z,6.66
2018-10-02T02:07:12.961Z,6.50
2018-10-02T02:08:12.881Z,6.55
2018-10-02T02:09:12.800Z,6.59
2018-10-02T02:10:12.722Z,6.50
2018-10-02T02:11:12.643Z,6.44
2018-10-02T02:12:12.566Z,6.32
2018-10-02T02:13:12.483Z,6.30
2018-10-02T02:14:12.403Z,6.42
2018-10-02T02:15:12.326Z,6.27
2018-10-02T02:16:12.248Z,6.21
2018-10-02T02:17:12.165Z,6.34
2018-10-02T02:18:12.087Z,6.17
2018-10-02T02:19:12.008Z,6.10
2018-10-02T02:20:11.927Z,6.10
2018-10-02T02:21:11.848Z,5.97
2018-10-02T02:22:11.769Z,5.99
2018-10-02T02:23:11.689Z,6.00
2018-10-02T02:24:11.610Z,5.95
2018-10-02T02:25:11.528Z,5.89
2018-10-02T02:26:11.450Z,5.85
2018-10-02T02:27:11.370Z,5.67
2018-10-02T02:28:11.291Z,5.68
2018-10-02T02:29:11.210Z,5.63
2018-10-02T02:30:11.130Z,5.52
2018-10-02T02:31:11.051Z,5.49
2018-10-02T02:32:10.971Z,5.38
2018-10-02T02:33:10.891Z,5.38
2018-10-02T02:34:10.863Z,5.28
2018-10-02T02:35:10.730Z,5.28
2018-10-02T02:36:10.651Z,5.26
2018-10-02T02:37:10.574Z,5.28
2018-10-02T02:38:10.491Z,5.34
2018-10-02T02:39:10.410Z,5.23
2018-10-02T02:40:10.334Z,5.21
2018-10-02T02:41:10.250Z,5.21
2018-10-02T02:42:10.170Z,5.18
2018-10-02T02:43:10.091Z,5.16
2018-10-02T02:44:10.110Z,5.11
2018-10-02T02:45:09.929Z,5.03
2018-10-02T02:46:09.848Z,5.14
2018-10-02T02:47:09.769Z,4.96
2018-10-02T02:48:09.688Z,4.92
2018-10-02T02:49:09.607Z,4.91
2018-10-02T02:50:09.527Z,4.91
2018-10-02T02:51:09.447Z,4.87
2018-10-02T02:52:09.366Z,4.79
2018-10-02T02:53:09.285Z,4.79
2018-10-02T02:54:09.454Z,4.83
2018-10-02T02:55:09.124Z,4.79
2018-10-02T02:56:09.044Z,4.74
2018-10-02T02:57:08.962Z,4.88
2018-10-02T02:58:08.882Z,4.93
2018-10-02T02:59:08.801Z,4.85
2018-10-02T03:00:08.725Z,4.87
2018-10-02T03:01:08.640Z,4.85
2018-10-02T03:02:08.558Z,4.92
2018-10-02T03:03:08.479Z,4.79
2018-10-02T03:04:08.399Z,4.79
2018-10-02T03:05:08.317Z,4.88
2018-10-02T03:06:08.238Z,4.79
2018-10-02T03:07:08.155Z,4.79
2018-10-02T03:08:08.076Z,4.76
2018-10-02T03:09:07.996Z,4.85
2018-10-02T03:10:07.921Z,4.79
2018-10-02T03:11:07.834Z,4.92
2018-10-02T03:12:07.753Z,4.85
2018-10-02T03:13:07.672Z,4.92
2018-10-02T03:14:07.591Z,4.79
2018-10-02T03:15:07.511Z,4.93
2018-10-02T03:16:07.530Z,4.95
2018-10-02T03:17:07.348Z,5.00
2018-10-02T03:18:07.268Z,4.98
2018-10-02T03:19:07.188Z,5.05
2018-10-02T03:20:07.107Z,5.11
2018-10-02T03:21:07.026Z,5.17
2018-10-02T03:22:06.946Z,5.21
2018-10-02T03:23:06.866Z,5.34
2018-10-02T03:24:06.791Z,5.23
2018-10-02T03:25:06.707Z,5.24
2018-10-02T03:26:06.623Z,5.31
2018-10-02T03:27:06.543Z,5.34
2018-10-02T03:28:06.463Z,5.29
2018-10-02T03:29:06.382Z,5.31
2018-10-02T03:30:06.302Z,5.42
2018-10-02T03:31:06.220Z,5.57
2018-10-02T03:32:06.143Z,5.52
2018-10-02T03:33:06.059Z,5.67
2018-10-02T03:34:05.980Z,5.74
2018-10-02T03:35:05.900Z,5.81
2018-10-02T03:36:05.820Z,5.93
2018-10-02T03:37:05.741Z,6.00
2018-10-02T03:38:05.660Z,5.97
2018-10-02T03:39:05.580Z,6.13
2018-10-02T03:40:05.499Z,6.08
2018-10-02T03:41:05.419Z,6.14
2018-10-02T03:42:05.339Z,6.18
2018-10-02T03:43:05.263Z,6.27
2018-10-02T03:44:05.184Z,6.27
2018-10-02T03:45:05.099Z,6.37
2018-10-02T03:46:05.019Z,6.44
2018-10-02T03:47:04.940Z,6.48
2018-10-02T03:48:04.861Z,6.54
2018-10-02T03:49:04.830Z,6.47
2018-10-02T03:50:04.802Z,6.41
2018-10-02T03:51:04.623Z,6.36
2018-10-02T03:52:04.541Z,6.34
2018-10-02T03:53:04.462Z,6.39
2018-10-02T03:54:04.382Z,6.32
2018-10-02T03:55:04.303Z,6.44
2018-10-02T03:56:04.223Z,6.27
2018-10-02T03:57:04.146Z,6.27
2018-10-02T03:58:04.074Z,6.27
2018-10-02T03:59:03.985Z,6.33
2018-10-02T04:00:03.911Z,6.17
2018-10-02T04:01:03.875Z,6.24
2018-10-02T04:02:03.745Z,6.29
2018-10-02T04:03:03.666Z,6.34
2018-10-02T04:04:03.587Z,6.41
2018-10-02T04:05:03.512Z,6.37
2018-10-02T04:06:03.428Z,6.37
2018-10-02T04:07:03.348Z,6.42
2018-10-02T04:08:03.267Z,6.41
2018-10-02T04:09:03.188Z,6.26
2018-10-02T04:10:03.108Z,6.29
2018-10-02T04:11:03.079Z,6.27
2018-10-02T04:12:02.949Z,6.15
2018-10-02T04:13:02.933Z,6.26
2018-10-02T04:14:02.793Z,6.18
2018-10-02T04:15:02.709Z,6.11
2018-10-02T04:16:02.636Z,6.00
2018-10-02T04:17:02.550Z,5.93
2018-10-02T04:18:02.470Z,5.90
2018-10-02T04:19:02.395Z,5.99
2018-10-02T04:20:02.311Z,5.95
2018-10-02T04:21:02.285Z,6.00
2018-10-02T04:22:02.151Z,6.04
2018-10-02T04:23:02.071Z,5.93
2018-10-02T04:24:01.992Z,5.89
2018-10-02T04:25:01.911Z,5.88
2018-10-02T04:26:01.833Z,6.00
2018-10-02T04:27:01.753Z,5.95
2018-10-02T04:28:01.796Z,5.96
2018-10-02T04:29:01.592Z,6.14
2018-10-02T04:30:01.513Z,5.99
2018-10-02T04:31:01.433Z,5.96
2018-10-02T04:32:01.354Z,5.95
2018-10-02T04:33:01.275Z,5.99
2018-10-02T04:34:01.215Z,6.04
2018-10-02T04:35:01.129Z,5.96
2018-10-02T04:36:01.035Z,5.99
2018-10-02T04:37:00.955Z,5.93
2018-10-02T04:38:01.128Z,5.97
2018-10-02T04:39:00.795Z,5.93
2018-10-02T04:40:00.715Z,5.97
2018-10-02T04:41:00.638Z,5.99
2018-10-02T04:42:00.556Z,6.00
2018-10-02T04:43:00.476Z,5.96
2018-10-02T04:44:00.397Z,5.96
2018-10-02T04:45:00.315Z,5.96
2018-10-02T04:46:00.236Z,6.10
2018-10-02T04:47:00.158Z,6.06
2018-10-02T04:48:00.178Z,6.10
2018-10-02T04:48:59.997Z,6.14
2018-10-02T04:49:59.917Z,6.15
2018-10-02T04:50:59.838Z,6.17
2018-10-02T04:51:59.758Z,6.30
2018-10-02T04:52:59.678Z,6.30
2018-10-02T04:53:59.598Z,6.29
2018-10-02T04:54:59.557Z,6.36
2018-10-02T04:55:59.536Z,6.45
2018-10-02T04:56:59.359Z,6.24
2018-10-02T04:57:59.380Z,6.30
2018-10-02T04:58:59.200Z,6.32
2018-10-02T04:59:59.121Z,6.36
2018-10-02T05:00:59.041Z,6.24
2018-10-02T05:01:58.961Z,6.37
2018-10-02T05:02:58.885Z,6.29
2018-10-02T05:03:58.802Z,6.22
2018-10-02T05:04:58.721Z,6.32
2018-10-02T05:05:58.646Z,6.36
2018-10-02T05:06:58.563Z,6.32
2018-10-02T05:07:58.483Z,6.36
2018-10-02T05:08:58.404Z,6.36
2018-10-02T05:09:58.323Z,6.34
2018-10-02T05:10:58.244Z,6.33
2018-10-02T05:11:58.170Z,6.42
2018-10-02T05:12:58.084Z,6.44
2018-10-02T05:13:58.013Z,6.51
2018-10-02T05:14:57.925Z,6.57
2018-10-02T05:15:57.846Z,6.48
2018-10-02T05:16:57.766Z,6.65
2018-10-02T05:17:57.688Z,6.65
2018-10-02T05:18:57.607Z,6.73
2018-10-02T05:19:57.528Z,6.70
2018-10-02T05:20:57.448Z,6.72
2018-10-02T05:21:57.368Z,6.75
2018-10-02T05:22:57.292Z,6.78
2018-10-02T05:23:57.209Z,6.87
2018-10-02T05:24:57.129Z,6.98
2018-10-02T05:25:57.051Z,6.76
2018-10-02T05:26:56.971Z,6.81
2018-10-02T05:27:56.991Z,6.96
2018-10-02T05:28:56.811Z,6.87
2018-10-02T05:29:56.733Z,6.88
2018-10-02T05:30:56.653Z,6.86
2018-10-02T05:31:56.573Z,6.90
2018-10-02T05:32:56.508Z,6.96
2018-10-02T05:33:56.414Z,6.94
2018-10-02T05:34:56.345Z,6.91
2018-10-02T05:35:56.257Z,6.94
2018-10-02T05:36:56.176Z,6.88
2018-10-02T05:37:56.096Z,6.98
2018-10-02T05:38:56.017Z,7.05
2018-10-02T05:39:55.937Z,7.02
2018-10-02T05:40:55.857Z,7.02
2018-10-02T05:41:55.777Z,7.01
2018-10-02T05:42:55.698Z,7.06
2018-10-02T05:43:55.619Z,7.12
2018-10-02T05:44:55.538Z,7.11
2018-10-02T05:45:55.459Z,7.13
2018-10-02T05:46:55.381Z,7.16
2018-10-02T05:47:55.301Z,7.12
2018-10-02T05:48:55.221Z,7.13
2018-10-02T05:49:55.291Z,7.16
2018-10-02T05:50:55.065Z,7.16
2018-10-02T05:51:54.983Z,7.17
2018-10-02T05:52:54.903Z,7.09
2018-10-02T05:53:54.824Z,7.19
2018-10-02T05:54:54.748Z,7.20
2018-10-02T05:55:54.667Z,7.13
2018-10-02T05:56:54.586Z,7.20
2018-10-02T05:57:54.509Z,7.13
2018-10-02T05:58:54.428Z,7.16
2018-10-02T05:59:54.350Z,7.13
2018-10-02T06:00:54.275Z,7.13
2018-10-02T06:01:54.189Z,7.23
2018-10-02T06:02:54.118Z,7.19
2018-10-02T06:03:54.109Z,7.23
2018-10-02T06:04:53.950Z,7.29
2018-10-02T06:05:53.883Z,7.31
2018-10-02T06:06:53.791Z,7.35
2018-10-02T06:07:53.712Z,7.35
2018-10-02T06:08:53.632Z,7.38
2018-10-02T06:09:53.559Z,7.34
2018-10-02T06:10:53.475Z,7.35
2018-10-02T06:11:53.396Z,7.37
2018-10-02T06:12:53.314Z,7.44
2018-10-02T06:13:53.236Z,7.42
2018-10-02T06:14:53.157Z,7.42
2018-10-02T06:15:53.079Z,7.45
2018-10-02T06:16:53.000Z,7.44
2018-10-02T06:17:52.949Z,7.42
2018-10-02T06:18:52.841Z,7.45
2018-10-02T06:19:52.762Z,7.49
2018-10-02T06:20:52.682Z,7.52
2018-10-02T06:21:52.653Z,7.56
2018-10-02T06:22:52.525Z,7.59
2018-10-02T06:23:52.446Z,7.53
2018-10-02T06:24:52.367Z,7.57
2018-10-02T06:25:52.288Z,7.52
2018-10-02T06:26:52.209Z,7.53
2018-10-02T06:27:52.130Z,7.56
2018-10-02T06:28:52.052Z,7.59
2018-10-02T06:29:51.971Z,7.59
2018-10-02T06:30:51.893Z,7.62
2018-10-02T06:31:51.815Z,7.56
2018-10-02T06:32:51.878Z,7.60
2018-10-02T06:33:51.655Z,7.67
2018-10-02T06:34:51.577Z,7.64
2018-10-02T06:35:51.499Z,7.68
2018-10-02T06:36:51.478Z,7.73
2018-10-02T06:37:51.346Z,7.64
2018-10-02T06:38:51.298Z,7.75
2018-10-02T06:39:51.182Z,7.82
2018-10-02T06:40:51.103Z,7.90
2018-10-02T06:41:51.025Z,7.82
2018-10-02T06:42:50.946Z,7.81
2018-10-02T06:43:50.965Z,7.76
2018-10-02T06:44:50.798Z,7.90
2018-10-02T06:45:50.708Z,7.86
2018-10-02T06:46:50.630Z,7.88
2018-10-02T06:47:50.552Z,7.88
2018-10-02T06:48:50.473Z,7.93
2018-10-02T06:49:50.394Z,7.86
2018-10-02T06:50:50.360Z,7.97
2018-10-02T06:51:50.297Z,7.94
2018-10-02T06:52:50.276Z,7.96
2018-10-02T06:53:50.079Z,8.04
2018-10-02T06:54:50.001Z,8.07
2018-10-02T06:55:49.922Z,8.15
2018-10-02T06:56:49.867Z,8.19
2018-10-02T06:57:49.765Z,8.21
2018-10-02T06:58:49.687Z,8.19
2018-10-02T06:59:49.608Z,8.25
2018-10-02T07:00:49.529Z,8.30
2018-10-02T07:01:49.452Z,8.33
2018-10-02T07:02:49.422Z,8.34
2018-10-02T07:03:49.296Z,8.22
2018-10-02T07:04:49.236Z,8.29
2018-10-02T07:05:49.137Z,8.42
2018-10-02T07:06:49.120Z,8.43
2018-10-02T07:07:48.981Z,8.51
2018-10-02T07:08:48.921Z,8.39
2018-10-02T07:09:48.824Z,8.48
2018-10-02T07:10:48.747Z,8.54
2018-10-02T07:11:48.674Z,8.55
2018-10-02T07:12:48.632Z,8.69
2018-10-02T07:13:48.513Z,8.69
2018-10-02T07:14:48.439Z,8.79
2018-10-02T07:15:48.359Z,8.70
2018-10-02T07:16:48.277Z,8.76
2018-10-02T07:17:48.201Z,8.90
2018-10-02T07:18:48.122Z,8.90
2018-10-02T07:19:48.046Z,8.95
2018-10-02T07:20:48.009Z,8.88
2018-10-02T07:21:47.887Z,8.84
2018-10-02T07:22:47.814Z,8.70
2018-10-02T07:23:47.733Z,8.69
2018-10-02T07:24:47.655Z,8.76
2018-10-02T07:25:47.577Z,8.87
2018-10-02T07:26:47.583Z,8.93
2018-10-02T07:27:47.657Z,8.87
2018-10-02T07:28:47.343Z,8.85
2018-10-02T07:29:47.265Z,8.93
2018-10-02T07:30:47.213Z,8.85
2018-10-02T07:31:47.160Z,8.93
2018-10-02T07:32:47.034Z,8.82
2018-10-02T07:33:47.000Z,8.85
2018-10-02T07:34:46.877Z,8.91
2018-10-02T07:35:46.800Z,8.98
2018-10-02T07:36:46.791Z,8.98
2018-10-02T07:37:46.643Z,9.02
2018-10-02T07:38:46.590Z,8.93
2018-10-02T07:39:46.490Z,8.93
2018-10-02T07:40:46.411Z,8.93
2018-10-02T07:41:46.353Z,8.93
2018-10-02T07:42:46.256Z,8.91
2018-10-02T07:43:46.179Z,8.82
2018-10-02T07:44:46.125Z,8.82
2018-10-02T07:45:46.022Z,8.90
2018-10-02T07:46:46.045Z,8.90
2018-10-02T07:47:45.882Z,8.82
2018-10-02T07:48:45.790Z,8.94
2018-10-02T07:49:45.712Z,8.85
2018-10-02T07:50:45.673Z,8.88
2018-10-02T07:51:45.563Z,9.02
2018-10-02T07:52:45.478Z,9.05
2018-10-02T07:53:45.458Z,9.25
2018-10-02T07:54:45.325Z,9.10
2018-10-02T07:55:45.247Z,9.31
2018-10-02T07:56:45.314Z,9.20
2018-10-02T07:57:45.097Z,9.34
2018-10-02T07:58:45.018Z,9.31
2018-10-02T07:59:45.041Z,9.27
2018-10-02T08:00:44.859Z,9.34
2018-10-02T08:01:44.845Z,9.27
2018-10-02T08:02:44.741Z,9.27
2018-10-02T08:03:44.628Z,9.05
2018-10-02T08:04:44.605Z,9.10
2018-10-02T08:05:44.593Z,9.09
2018-10-02T08:06:44.397Z,9.16
2018-10-02T08:07:44.320Z,9.28
2018-10-02T08:08:44.244Z,9.22
2018-10-02T08:09:44.164Z,9.22
2018-10-02T08:10:44.088Z,9.31
2018-10-02T08:11:44.160Z,9.42
2018-10-02T08:12:43.931Z,9.42
2018-10-02T08:13:43.854Z,9.52
2018-10-02T08:14:43.833Z,9.63
2018-10-02T08:15:43.700Z,9.61
2018-10-02T08:16:43.622Z,9.53
2018-10-02T08:17:43.553Z,9.55
2018-10-02T08:18:43.470Z,9.60
2018-10-02T08:19:43.392Z,9.70
2018-10-02T08:20:43.451Z,9.79
2018-10-02T08:21:43.238Z,9.83
2018-10-02T08:22:43.162Z,9.85
2018-10-02T08:23:43.183Z,9.79
2018-10-02T08:24:43.005Z,9.68
2018-10-02T08:25:42.934Z,9.56
2018-10-02T08:26:42.904Z,9.74
2018-10-02T08:27:42.777Z,9.82
2018-10-02T08:28:42.726Z,10.00
2018-10-02T08:29:42.747Z,9.98
2018-10-02T08:30:42.546Z,10.01
2018-10-02T08:31:42.469Z,9.97
2018-10-02T08:32:42.515Z,10.00
2018-10-02T08:33:42.316Z,10.13
2018-10-02T08:34:42.240Z,10.19
2018-10-02T08:35:42.226Z,10.21
2018-10-02T08:36:42.085Z,10.22
2018-10-02T08:37:42.010Z,10.15
2018-10-02T08:38:42.015Z,10.11
2018-10-02T08:39:41.858Z,10.16
2018-10-02T08:40:41.779Z,10.06
2018-10-02T08:41:41.755Z,10.04
2018-10-02T08:42:41.628Z,10.10
2018-10-02T08:43:41.727Z,10.21
2018-10-02T08:44:41.523Z,10.18
2018-10-02T08:45:41.396Z,10.16
2018-10-02T08:46:41.324Z,10.19
2018-10-02T08:47:41.276Z,10.33
2018-10-02T08:48:41.165Z,10.28
2018-10-02T08:49:41.089Z,10.37
2018-10-02T08:50:41.109Z,10.34
2018-10-02T08:51:41.005Z,10.18
2018-10-02T08:52:40.860Z,10.03
2018-10-02T08:53:40.872Z,9.98
2018-10-02T08:54:40.708Z,9.92
2018-10-02T08:55:40.634Z,9.96
2018-10-02T08:56:40.554Z,9.93
2018-10-02T08:57:40.477Z,10.06
2018-10-02T08:58:40.411Z,9.96
2018-10-02T08:59:40.326Z,9.97
2018-10-02T09:00:40.255Z,10.08
2018-10-02T09:01:40.171Z,10.06
2018-10-02T09:02:40.096Z,10.13
2018-10-02T09:03:40.019Z,10.03
2018-10-02T09:04:39.942Z,9.90
2018-10-02T09:05:39.865Z,9.82
2018-10-02T09:06:39.844Z,9.92
2018-10-02T09:07:39.714Z,9.82
2018-10-02T09:08:39.634Z,9.80
2018-10-02T09:09:39.558Z,9.89
2018-10-02T09:10:39.481Z,9.88
2018-10-02T09:11:39.404Z,9.90
2018-10-02T09:12:39.372Z,9.97
2018-10-02T09:13:39.293Z,9.97
2018-10-02T09:14:39.174Z,9.97
2018-10-02T09:15:39.189Z,10.00
2018-10-02T09:16:39.140Z,10.04
2018-10-02T09:17:38.944Z,10.04
2018-10-02T09:18:38.962Z,10.11
2018-10-02T09:19:38.791Z,10.23
2018-10-02T09:20:38.734Z,10.21
2018-10-02T09:21:38.735Z,10.13
2018-10-02T09:22:38.560Z,10.15
2018-10-02T09:23:38.484Z,10.16
2018-10-02T09:24:38.456Z,10.25
2018-10-02T09:25:38.330Z,10.19
2018-10-02T09:26:38.254Z,10.07
2018-10-02T09:27:38.239Z,10.01
2018-10-02T09:28:38.152Z,10.13
2018-10-02T09:29:38.124Z,9.97
2018-10-02T09:30:37.966Z,9.97
2018-10-02T09:31:37.873Z,10.06
2018-10-02T09:32:37.800Z,10.08
2018-10-02T09:33:37.810Z,10.03
2018-10-02T09:34:37.692Z,10.01
2018-10-02T09:35:37.567Z,10.08
2018-10-02T09:36:37.553Z,10.00
2018-10-02T09:37:37.413Z,10.00
2018-10-02T09:38:37.336Z,10.03
2018-10-02T09:39:37.375Z,10.13
2018-10-02T09:40:37.186Z,10.13
2018-10-02T09:41:37.108Z,10.22
2018-10-02T09:42:37.095Z,10.23
2018-10-02T09:43:37.055Z,10.16
2018-10-02T09:44:36.878Z,10.01
2018-10-02T09:45:36.919Z,10.01
2018-10-02T09:46:36.726Z,10.00
2018-10-02T09:47:36.650Z,10.00
2018-10-02T09:48:36.587Z,10.03
2018-10-02T09:49:36.598Z,9.93
2018-10-02T09:50:36.441Z,10.03
2018-10-02T09:51:36.404Z,10.03
2018-10-02T09:52:36.270Z,9.98
2018-10-02T09:53:36.190Z,10.07
2018-10-02T09:54:36.150Z,10.22
2018-10-02T09:55:36.039Z,10.21
2018-10-02T09:56:35.988Z,10.06
2018-10-02T09:57:35.885Z,10.16
2018-10-02T09:58:35.851Z,10.11
2018-10-02T09:59:35.733Z,9.93
2018-10-02T10:00:35.674Z,9.93
2018-10-02T10:01:35.581Z,9.86
2018-10-02T10:02:35.604Z,9.68
2018-10-02T10:03:35.429Z,9.61
2018-10-02T10:04:35.350Z,9.67
2018-10-02T10:05:35.275Z,9.70
2018-10-02T10:06:35.202Z,9.92
2018-10-02T10:07:35.121Z,9.89
2018-10-02T10:08:35.044Z,9.93
2018-10-02T10:09:34.969Z,9.79
2018-10-02T10:10:34.906Z,9.89
2018-10-02T10:11:34.814Z,9.88
2018-10-02T10:12:34.742Z,9.97
2018-10-02T10:13:34.661Z,9.96
2018-10-02T10:14:34.585Z,9.92
2018-10-02T10:15:34.508Z,9.83
2018-10-02T10:16:34.517Z,9.90
2018-10-02T10:17:34.356Z,9.90
2018-10-02T10:18:34.279Z,10.00
2018-10-02T10:19:34.201Z,10.00
2018-10-02T10:20:34.127Z,10.00
2018-10-02T10:21:34.048Z,10.08
2018-10-02T10:22:34.042Z,10.13
2018-10-02T10:23:33.895Z,10.10
2018-10-02T10:24:33.817Z,10.18
2018-10-02T10:25:33.741Z,10.19
2018-10-02T10:26:33.694Z,10.26
2018-10-02T10:27:33.590Z,10.33
2018-10-02T10:28:33.568Z,10.31
2018-10-02T10:29:33.436Z,10.26
2018-10-02T10:30:33.360Z,10.28
2018-10-02T10:31:33.382Z,10.28
2018-10-02T10:32:33.204Z,10.22
2018-10-02T10:33:33.164Z,10.28
2018-10-02T10:34:33.085Z,10.23
2018-10-02T10:35:32.980Z,10.16
2018-10-02T10:36:32.899Z,10.28
2018-10-02T10:37:32.822Z,10.36
2018-10-02T10:38:32.747Z,10.25
2018-10-02T10:39:32.672Z,10.43
2018-10-02T10:40:32.612Z,10.43
2018-10-02T10:41:32.520Z,10.44
2018-10-02T10:42:32.442Z,10.44
2018-10-02T10:43:32.366Z,10.55
2018-10-02T10:44:32.290Z,10.66
2018-10-02T10:45:32.213Z,10.73
2018-10-02T10:46:32.186Z,10.71
2018-10-02T10:47:32.074Z,10.55
2018-10-02T10:48:31.986Z,10.67
2018-10-02T10:49:31.908Z,10.75
2018-10-02T10:50:31.835Z,10.84
2018-10-02T10:51:31.757Z,10.99
2018-10-02T10:52:31.792Z,10.95
2018-10-02T10:53:31.605Z,10.93
2018-10-02T10:54:31.531Z,10.91
2018-10-02T10:55:31.458Z,10.95
2018-10-02T10:56:31.476Z,10.96
2018-10-02T10:57:31.302Z,10.93
2018-10-02T10:58:31.339Z,10.92
2018-10-02T10:59:31.151Z,10.85
2018-10-02T11:00:31.076Z,10.87
2018-10-02T11:01:30.999Z,10.81
2018-10-02T11:02:30.923Z,10.62
2018-10-02T11:03:30.849Z,10.71
2018-10-02T11:04:30.777Z,10.56
2018-10-02T11:05:30.696Z,10.44
2018-10-02T11:06:30.621Z,10.59
2018-10-02T11:07:30.546Z,10.43
2018-10-02T11:08:30.471Z,10.55
2018-10-02T11:09:30.405Z,10.58
2018-10-02T11:10:30.318Z,10.59
2018-10-02T11:11:30.243Z,10.43
2018-10-02T11:12:30.164Z,10.37
2018-10-02T11:13:30.088Z,10.56
2018-10-02T11:14:30.013Z,10.59
2018-10-02T11:15:29.936Z,10.60
2018-10-02T11:16:29.860Z,10.58
2018-10-02T11:17:29.783Z,10.56
2018-10-02T11:18:29.707Z,10.53
2018-10-02T11:19:29.657Z,10.40
2018-10-02T11:20:29.555Z,10.47
2018-10-02T11:21:29.478Z,10.36
2018-10-02T11:22:29.402Z,10.41
2018-10-02T11:23:29.376Z,10.31
2018-10-02T11:24:29.251Z,10.40
2018-10-02T11:25:29.237Z,10.33
2018-10-02T11:26:29.096Z,10.28
2018-10-02T11:27:29.022Z,10.29
2018-10-02T11:28:28.943Z,10.34
2018-10-02T11:29:28.866Z,10.22
2018-10-02T11:30:28.792Z,10.22
2018-10-02T11:31:28.753Z,10.15
2018-10-02T11:32:28.637Z,10.26
2018-10-02T11:33:28.560Z,10.23
2018-10-02T11:34:28.482Z,10.34
2018-10-02T11:35:28.472Z,10.28
2018-10-02T11:36:28.331Z,10.26
2018-10-02T11:37:28.254Z,10.23
2018-10-02T11:38:28.176Z,10.37
2018-10-02T11:39:28.100Z,10.31
2018-10-02T11:40:28.023Z,10.37
2018-10-02T11:41:27.948Z,10.40
2018-10-02T11:42:27.869Z,10.46
2018-10-02T11:43:27.828Z,10.43
2018-10-02T11:44:27.802Z,10.47
2018-10-02T11:45:27.639Z,10.43
2018-10-02T11:46:27.562Z,10.34
2018-10-02T11:47:27.488Z,10.22
2018-10-02T11:48:27.409Z,10.19
2018-10-02T11:49:27.357Z,10.15
2018-10-02T11:50:27.256Z,10.21
2018-10-02T11:51:27.181Z,10.04
2018-10-02T11:52:27.102Z,10.03
2018-10-02T11:53:27.026Z,10.04
2018-10-02T11:54:26.952Z,10.13
2018-10-02T11:55:27.042Z,10.10
2018-10-02T11:56:27.645Z,10.15
2018-10-02T11:57:26.783Z,10.23
2018-10-02T11:58:26.640Z,10.29
2018-10-02T11:59:26.564Z,10.28
2018-10-02T12:00:26.491Z,10.28
2018-10-02T12:01:26.516Z,10.28
2018-10-02T12:02:26.356Z,10.34
2018-10-02T12:03:26.361Z,10.29
2018-10-02T12:04:26.179Z,10.23
2018-10-02T12:05:26.103Z,10.26
2018-10-02T12:06:26.027Z,10.15
2018-10-02T12:07:25.951Z,10.23
2018-10-02T12:08:25.873Z,10.03
2018-10-02T12:09:25.797Z,9.93
2018-10-02T12:10:25.720Z,9.97
2018-10-02T12:11:25.645Z,9.90
2018-10-02T12:12:25.566Z,9.63
2018-10-02T12:13:25.627Z,9.65
2018-10-02T12:14:25.595Z,9.61
2018-10-02T12:15:25.341Z,9.63
2018-10-02T12:16:25.258Z,9.60
2018-10-02T12:17:25.181Z,9.58
2018-10-02T12:18:25.106Z,9.58
2018-10-02T12:19:25.112Z,9.60
2018-10-02T12:20:24.949Z,9.56
2018-10-02T12:21:24.872Z,9.64
2018-10-02T12:22:24.798Z,9.65
2018-10-02T12:23:24.818Z,9.63
2018-10-02T12:24:24.641Z,9.67
2018-10-02T12:25:24.567Z,9.67
2018-10-02T12:26:24.486Z,9.56
2018-10-02T12:27:24.409Z,9.60
2018-10-02T12:28:24.331Z,9.60
2018-10-02T12:29:24.254Z,9.42
2018-10-02T12:30:24.177Z,9.46
2018-10-02T12:31:24.247Z,9.42
2018-10-02T12:32:24.022Z,9.46
2018-10-02T12:33:24.047Z,9.56
2018-10-02T12:34:23.868Z,9.38
2018-10-02T12:35:23.790Z,9.35
2018-10-02T12:36:23.713Z,9.34
2018-10-02T12:37:23.637Z,9.24
2018-10-02T12:38:23.592Z,9.24
2018-10-02T12:39:23.648Z,9.27
2018-10-02T12:40:23.403Z,9.25
2018-10-02T12:41:23.327Z,9.29
2018-10-02T12:42:23.249Z,9.20
2018-10-02T12:43:23.171Z,9.13
2018-10-02T12:44:23.094Z,9.31
2018-10-02T12:45:23.016Z,9.22
2018-10-02T12:46:22.938Z,9.34
2018-10-02T12:47:22.860Z,9.27
2018-10-02T12:48:22.800Z,9.25
2018-10-02T12:49:22.709Z,9.20
2018-10-02T12:50:22.628Z,9.16
2018-10-02T12:51:22.590Z,9.16
2018-10-02T12:52:22.520Z,9.05
2018-10-02T12:53:22.466Z,8.90
2018-10-02T12:54:22.316Z,8.91
2018-10-02T12:55:22.238Z,8.98
2018-10-02T12:56:22.191Z,9.00
2018-10-02T12:57:22.082Z,8.97
2018-10-02T12:58:22.004Z,8.97
2018-10-02T12:59:21.973Z,9.02
2018-10-02T13:00:21.847Z,8.97
2018-10-02T13:01:21.769Z,8.94
2018-10-02T13:02:21.691Z,8.91
2018-10-02T13:03:21.615Z,9.00
2018-10-02T13:04:21.535Z,9.05
2018-10-02T13:05:21.458Z,9.12
2018-10-02T13:06:21.379Z,9.09
2018-10-02T13:07:21.302Z,9.02
2018-10-02T13:08:21.226Z,9.02
2018-10-02T13:09:21.195Z,9.00
2018-10-02T13:10:21.067Z,9.03
2018-10-02T13:11:20.990Z,9.02